createdAt,value
2022-08-05T00:00:25.991Z,0.52
2022-08-05T00:02:59.553Z,0.75
2022-08-05T00:06:04.838Z,0.55
2022-08-05T00:08:35.509Z,0.50
2022-08-05T00:13:59.066Z,0.50
2022-08-05T00:16:36.165Z,0.60
2022-08-05T00:19:07.981Z,0.90
2022-08-05T00:21:38.491Z,0.88
2022-08-05T00:24:16.364Z,0.47
2022-08-05T00:26:51.706Z,0.50
2022-08-05T00:29:26.069Z,0.40
2022-08-05T00:32:13.217Z,0.73
2022-08-05T00:35:03.326Z,0.55
2022-08-05T00:37:52.420Z,0.20
2022-08-05T00:40:29.031Z,0.60
2022-08-05T00:43:02.339Z,0.43
2022-08-05T00:45:42.952Z,0.50
2022-08-05T00:48:31.502Z,0.40
2022-08-05T00:51:09.040Z,0.47
2022-08-05T00:54:02.601Z,0.52
2022-08-05T00:56:33.722Z,0.57
2022-08-05T00:59:06.821Z,1.15
2022-08-05T01:01:42.469Z,1.08
2022-08-05T01:04:19.906Z,0.38
2022-08-05T01:06:57.037Z,0.50
2022-08-05T01:09:30.481Z,0.30
2022-08-05T01:12:17.875Z,1.10
2022-08-05T01:15:05.180Z,0.77
2022-08-05T01:17:45.147Z,0.32
2022-08-05T01:20:42.631Z,0.25
2022-08-05T01:24:14.147Z,0.40
2022-08-05T01:26:50.538Z,0.40
2022-08-05T01:32:18.825Z,0.20
2022-08-05T01:35:52.061Z,1.25
2022-08-05T01:38:24.642Z,0.25
2022-08-05T01:41:01.625Z,0.30
2022-08-05T01:43:34.237Z,0.10
2022-08-05T01:46:07.520Z,0.30
2022-08-05T01:48:49.758Z,0.00
2022-08-05T01:51:21.301Z,0.00
2022-08-05T01:53:57.625Z,0.10
2022-08-05T01:58:29.495Z,0.00
2022-08-05T01:59:28.352Z,0.03
2022-08-05T02:02:03.223Z,0.03
2022-08-05T02:04:38.452Z,0.20
2022-08-05T02:07:11.680Z,0.25
2022-08-05T02:09:53.231Z,0.00
2022-08-05T02:12:36.185Z,0.17
2022-08-05T02:15:35.988Z,0.10
2022-08-05T02:18:33.297Z,0.10
2022-08-05T02:21:03.890Z,0.08
2022-08-05T02:23:40.170Z,0.10
2022-08-05T02:26:15.002Z,0.08
2022-08-05T02:28:49.940Z,0.10
2022-08-05T02:31:26.140Z,0.00
2022-08-05T02:34:09.381Z,0.40
2022-08-05T02:36:52.368Z,0.00
2022-08-05T02:39:25.770Z,0.20
2022-08-05T02:42:01.227Z,0.60
2022-08-05T02:44:35.118Z,0.10
2022-08-05T02:47:09.501Z,0.05
2022-08-05T02:49:43.644Z,0.10
2022-08-05T02:52:29.918Z,0.28
2022-08-05T02:55:05.626Z,0.20
2022-08-05T02:58:12.050Z,0.13
2022-08-05T03:00:31.755Z,0.10
2022-08-05T03:03:03.335Z,0.10
2022-08-05T03:06:56.649Z,0.00
2022-08-05T03:08:34.129Z,0.20
2022-08-05T03:11:53.669Z,0.10
2022-08-05T03:14:03.284Z,0.30
2022-08-05T03:16:33.802Z,0.15
2022-08-05T03:19:17.401Z,0.20
2022-08-05T03:21:57.297Z,0.30
2022-08-05T03:24:29.988Z,0.60
2022-08-05T03:27:01.792Z,0.40
2022-08-05T03:29:45.880Z,0.32
2022-08-05T03:32:30.933Z,0.35
2022-08-05T03:35:02.045Z,0.20
2022-08-05T03:37:46.392Z,0.13
2022-08-05T03:40:31.422Z,0.15
2022-08-05T03:43:58.868Z,0.10
2022-08-05T03:45:58.725Z,0.15
2022-08-05T03:48:30.342Z,0.45
2022-08-05T03:52:48.836Z,0.80
2022-08-05T03:55:50.745Z,0.50
2022-08-05T03:57:02.323Z,0.32
2022-08-05T03:59:58.808Z,0.40
2022-08-05T04:02:52.285Z,0.40
2022-08-05T04:05:33.739Z,0.30
2022-08-05T04:08:14.480Z,0.32
2022-08-05T04:10:53.023Z,0.40
2022-08-05T04:13:24.528Z,0.22
2022-08-05T04:16:04.842Z,0.50
2022-08-05T04:18:35.662Z,0.45
2022-08-05T04:21:06.967Z,0.47
2022-08-05T04:24:05.305Z,0.20
2022-08-05T04:26:32.449Z,0.40
2022-08-05T04:29:07.401Z,0.30
2022-08-05T04:31:38.634Z,0.20
2022-08-05T04:34:31.369Z,0.15
2022-08-05T04:37:00.833Z,0.17
2022-08-05T04:39:35.469Z,0.30
2022-08-05T04:42:06.462Z,0.10
2022-08-05T04:44:36.901Z,0.00
2022-08-05T04:47:09.293Z,0.10
2022-08-05T04:50:01.353Z,0.00
2022-08-05T04:52:33.394Z,0.10
2022-08-05T04:55:13.986Z,0.17
2022-08-05T04:57:51.608Z,0.08
2022-08-05T05:00:24.685Z,0.10
2022-08-05T05:02:55.569Z,0.20
2022-08-05T05:05:28.933Z,0.10
2022-08-05T05:08:14.378Z,0.50
2022-08-05T05:10:57.700Z,0.20
2022-08-05T05:13:32.446Z,0.20
2022-08-05T05:16:13.902Z,0.20
2022-08-05T05:19:08.857Z,0.22
2022-08-05T05:21:36.343Z,0.10
2022-08-05T05:24:08.970Z,0.13
2022-08-05T05:26:39.724Z,0.10
2022-08-05T05:31:46.309Z,0.10
2022-08-05T05:34:20.008Z,0.10
2022-08-05T05:36:57.145Z,0.08
2022-08-05T05:39:34.397Z,0.13
2022-08-05T05:42:05.894Z,0.10
2022-08-05T05:44:42.981Z,0.10
2022-08-05T05:47:22.180Z,0.10
2022-08-05T05:49:56.783Z,0.10
2022-08-05T05:52:37.868Z,0.20
2022-08-05T05:55:13.956Z,0.20
2022-08-05T05:57:52.113Z,0.17
2022-08-05T06:00:31.482Z,0.20
2022-08-05T06:03:28.584Z,0.28
2022-08-05T06:05:55.751Z,0.20
2022-08-05T06:08:31.851Z,0.10
2022-08-05T06:11:04.025Z,0.20
2022-08-05T06:13:40.880Z,0.22
2022-08-05T06:16:30.495Z,0.20
2022-08-05T06:19:05.836Z,0.10
2022-08-05T06:21:41.709Z,0.10
2022-08-05T06:24:14.754Z,0.13
2022-08-05T06:26:51.733Z,0.22
2022-08-05T06:29:49.009Z,0.20
2022-08-05T06:32:25.428Z,0.00
2022-08-05T06:37:58.339Z,0.13
2022-08-05T06:40:21.393Z,0.17
2022-08-05T06:42:58.539Z,0.00
2022-08-05T06:45:45.136Z,0.10
2022-08-05T06:48:53.009Z,0.20
2022-08-05T06:51:10.726Z,0.10
2022-08-05T06:53:53.625Z,0.00
2022-08-05T06:56:26.482Z,0.10
2022-08-05T06:58:57.813Z,0.10
2022-08-05T07:01:32.183Z,0.10
2022-08-05T07:04:03.661Z,0.20
2022-08-05T07:06:34.057Z,0.20
2022-08-05T07:09:06.210Z,0.20
2022-08-05T07:11:39.894Z,0.10
2022-08-05T07:14:30.072Z,0.10
2022-08-05T07:18:00.456Z,0.20
2022-08-05T07:20:32.322Z,0.08
2022-08-05T07:22:47.807Z,0.13
2022-08-05T07:25:53.955Z,0.20
2022-08-05T07:28:11.747Z,0.10
2022-08-05T07:30:50.334Z,0.10
2022-08-05T07:33:36.671Z,0.10
2022-08-05T07:36:20.900Z,0.20
2022-08-05T07:38:54.966Z,0.30
2022-08-05T07:42:08.677Z,0.17
2022-08-05T07:44:19.486Z,0.20
2022-08-05T07:46:51.443Z,0.32
2022-08-05T07:49:21.867Z,0.50
2022-08-05T07:51:55.054Z,0.57
2022-08-05T07:54:31.043Z,0.30
2022-08-05T07:57:18.194Z,0.47
2022-08-05T07:59:57.974Z,0.30
2022-08-05T08:03:15.363Z,0.20
2022-08-05T08:05:21.063Z,0.38
2022-08-05T08:07:59.882Z,0.43
2022-08-05T08:10:31.648Z,0.68
2022-08-05T08:13:03.502Z,0.73
2022-08-05T08:16:34.489Z,0.70
2022-08-05T08:18:24.691Z,0.70
2022-08-05T08:21:02.836Z,0.43
2022-08-05T08:24:01.882Z,0.52
2022-08-05T08:26:26.595Z,0.50
2022-08-05T08:29:29.622Z,0.57
2022-08-05T08:31:54.625Z,0.40
2022-08-05T08:34:30.157Z,0.80
2022-08-05T08:37:05.105Z,0.90
2022-08-05T08:39:37.688Z,0.55
2022-08-05T08:42:33.883Z,1.10
2022-08-05T08:45:24.266Z,1.33
2022-08-05T08:48:10.568Z,1.00
2022-08-05T08:51:22.246Z,0.90
2022-08-05T08:53:45.222Z,0.77
2022-08-05T08:56:15.959Z,0.50
2022-08-05T08:58:49.515Z,0.60
2022-08-05T09:01:21.649Z,0.35
2022-08-05T09:03:57.484Z,0.28
2022-08-05T09:06:30.937Z,0.28
2022-08-05T09:09:02.731Z,0.40
2022-08-05T09:11:50.983Z,0.30
2022-08-05T09:14:59.037Z,0.30
2022-08-05T09:17:42.699Z,0.30
2022-08-05T09:20:08.371Z,0.30
2022-08-05T09:23:09.272Z,0.40
2022-08-05T09:26:00.253Z,0.30
2022-08-05T09:28:35.650Z,0.43
2022-08-05T09:31:43.562Z,0.22
2022-08-05T09:34:09.678Z,0.50
2022-08-05T09:36:54.968Z,0.60
2022-08-05T09:39:41.392Z,0.82
2022-08-05T09:42:24.048Z,0.63
2022-08-05T09:46:05.207Z,0.77
2022-08-05T09:47:58.091Z,0.90
2022-08-05T09:50:44.252Z,0.70
2022-08-05T09:53:25.973Z,0.52
2022-08-05T09:56:12.738Z,0.77
2022-08-05T09:58:43.614Z,0.90
2022-08-05T10:01:32.140Z,0.70
2022-08-05T10:04:10.222Z,0.77
2022-08-05T10:06:59.501Z,0.90
2022-08-05T10:09:44.840Z,0.68
2022-08-05T10:12:30.735Z,1.17
2022-08-05T10:15:19.959Z,1.15
2022-08-05T10:18:08.618Z,0.95
2022-08-05T10:20:44.350Z,0.80
2022-08-05T10:23:55.325Z,1.00
2022-08-05T10:26:16.647Z,0.73
2022-08-05T10:28:48.623Z,1.13
2022-08-05T10:32:48.663Z,0.95
2022-08-05T10:34:11.184Z,1.05
2022-08-05T10:36:43.310Z,1.05
2022-08-05T10:39:25.147Z,1.05
2022-08-05T10:42:18.539Z,1.35
2022-08-05T10:44:49.798Z,1.42
2022-08-05T10:47:26.973Z,0.85
2022-08-05T10:50:31.777Z,1.08
2022-08-05T10:53:07.159Z,0.95
2022-08-05T10:58:48.539Z,1.35
2022-08-05T11:01:54.139Z,1.00
2022-08-05T11:04:26.177Z,1.15
2022-08-05T11:06:59.775Z,1.00
2022-08-05T11:09:51.017Z,1.20
2022-08-05T11:12:50.513Z,1.13
2022-08-05T11:15:59.065Z,1.17
2022-08-05T11:18:32.255Z,1.00
2022-08-05T11:21:11.762Z,1.15
2022-08-05T11:24:02.526Z,1.27
2022-08-05T11:26:34.381Z,1.33
2022-08-05T11:29:12.962Z,1.40
2022-08-05T11:31:57.115Z,1.58
2022-08-05T11:34:51.998Z,1.50
2022-08-05T11:38:27.962Z,1.67
2022-08-05T11:41:35.528Z,1.02
2022-08-05T11:44:08.731Z,1.42
2022-08-05T11:47:09.853Z,1.40
2022-08-05T11:49:36.124Z,1.88
2022-08-05T11:52:08.433Z,1.30
2022-08-05T11:54:43.608Z,1.33
2022-08-05T11:57:26.077Z,1.90
2022-08-05T11:59:57.667Z,1.48
2022-08-05T12:02:33.695Z,1.77
2022-08-05T12:05:18.492Z,1.80
2022-08-05T12:08:08.133Z,0.93
2022-08-05T12:10:45.302Z,1.75
2022-08-05T12:13:47.828Z,1.58
2022-08-05T12:16:15.507Z,1.33
2022-08-05T12:18:49.306Z,1.38
2022-08-05T12:21:39.365Z,1.33
2022-08-05T12:24:12.690Z,1.75
2022-08-05T12:26:46.105Z,1.17
2022-08-05T12:29:22.505Z,1.70
2022-08-05T12:31:56.651Z,1.83
2022-08-05T12:34:29.700Z,1.20
2022-08-05T12:37:30.242Z,1.52
2022-08-05T12:40:10.532Z,1.27
2022-08-05T12:42:42.231Z,1.70
2022-08-05T12:45:13.313Z,1.35
2022-08-05T12:48:01.372Z,0.98
2022-08-05T12:50:37.082Z,1.20
2022-08-05T12:53:07.704Z,0.80
2022-08-05T12:55:43.790Z,1.60
2022-08-05T12:58:50.149Z,0.88
2022-08-05T13:02:02.674Z,2.17
2022-08-05T13:04:07.667Z,1.77
2022-08-05T13:06:51.562Z,1.65
2022-08-05T13:09:28.195Z,0.68
2022-08-05T13:15:05.045Z,2.08
2022-08-05T13:17:59.168Z,2.20
2022-08-05T13:23:11.016Z,1.40
2022-08-05T13:25:52.058Z,1.95
2022-08-05T13:28:32.283Z,1.73
2022-08-05T13:31:03.310Z,1.95
2022-08-05T13:34:20.956Z,1.77
2022-08-05T13:36:35.583Z,2.20
2022-08-05T13:39:08.537Z,1.60
2022-08-05T13:44:26.220Z,2.60
2022-08-05T13:47:02.298Z,2.78
2022-08-05T13:49:35.784Z,1.60
2022-08-05T13:54:53.361Z,1.88
2022-08-05T13:57:24.572Z,1.58
2022-08-05T13:59:57.224Z,1.55
2022-08-05T14:02:31.387Z,1.60
2022-08-05T14:05:15.301Z,1.45
2022-08-05T14:08:00.348Z,1.70
2022-08-05T14:10:38.168Z,1.75
2022-08-05T14:13:09.081Z,2.25
2022-08-05T14:16:09.254Z,2.20
2022-08-05T14:18:30.219Z,2.45
2022-08-05T14:21:00.962Z,1.90
2022-08-05T14:23:51.295Z,1.30
2022-08-05T14:26:35.769Z,1.02
2022-08-05T14:29:16.810Z,1.50
2022-08-05T14:32:03.641Z,1.70
2022-08-05T14:34:38.208Z,1.30
2022-08-05T14:37:13.340Z,1.10
2022-08-05T14:39:49.512Z,1.35
2022-08-05T14:42:29.338Z,1.25
2022-08-05T14:44:59.918Z,1.35
2022-08-05T14:48:02.724Z,1.27
2022-08-05T14:50:20.961Z,0.80
2022-08-05T14:55:39.883Z,1.00
2022-08-05T14:58:13.847Z,0.93
2022-08-05T15:00:58.416Z,0.82
2022-08-05T15:03:33.555Z,0.63
2022-08-05T15:06:07.591Z,0.88
2022-08-05T15:08:59.375Z,1.05
2022-08-05T15:11:52.693Z,1.42
2022-08-05T15:14:34.888Z,1.20
2022-08-05T15:17:44.823Z,1.70
2022-08-05T15:20:05.870Z,1.20
2022-08-05T15:22:36.242Z,1.05
2022-08-05T15:25:13.631Z,0.93
2022-08-05T15:27:51.813Z,1.08
2022-08-05T15:30:23.090Z,1.15
2022-08-05T15:32:54.212Z,1.13
2022-08-05T15:35:25.994Z,0.57
2022-08-05T15:38:32.717Z,0.90
2022-08-05T15:41:20.729Z,0.90
2022-08-05T15:43:45.306Z,0.90
2022-08-05T15:46:16.644Z,0.85
2022-08-05T15:48:52.886Z,0.93
2022-08-05T15:52:04.228Z,0.85
2022-08-05T15:54:20.514Z,0.85
2022-08-05T15:57:08.704Z,1.55
2022-08-05T15:59:43.401Z,1.30
2022-08-05T16:02:19.819Z,1.00
2022-08-05T16:04:56.343Z,1.00
2022-08-05T16:07:29.625Z,1.00
2022-08-05T16:10:00.482Z,1.20
2022-08-05T16:12:31.029Z,0.75
2022-08-05T16:15:02.643Z,0.90
2022-08-05T16:17:33.649Z,0.82
2022-08-05T16:20:11.969Z,1.40
2022-08-05T16:22:44.965Z,0.90
2022-08-05T16:25:15.767Z,0.73
2022-08-05T16:27:59.936Z,1.00
2022-08-05T16:30:32.899Z,1.02
2022-08-05T16:33:04.058Z,1.10
2022-08-05T16:35:43.066Z,1.10
2022-08-05T16:38:25.603Z,0.90
2022-08-05T16:41:01.508Z,0.47
2022-08-05T16:43:36.881Z,0.75
2022-08-05T16:46:12.958Z,0.50
2022-08-05T16:48:55.713Z,0.82
2022-08-05T16:51:30.667Z,0.70
2022-08-05T16:54:05.212Z,0.52
2022-08-05T16:56:41.898Z,0.50
2022-08-05T16:59:15.686Z,0.73
2022-08-05T17:01:54.184Z,0.40
2022-08-05T17:04:29.847Z,0.57
2022-08-05T17:07:11.398Z,0.38
2022-08-05T17:09:58.099Z,0.40
2022-08-05T17:12:51.277Z,0.40
2022-08-05T17:15:19.963Z,0.32
2022-08-05T17:17:54.763Z,0.35
2022-08-05T17:20:26.794Z,0.30
2022-08-05T17:22:58.949Z,0.57
2022-08-05T17:25:39.294Z,0.30
2022-08-05T17:28:10.370Z,0.40
2022-08-05T17:30:50.521Z,0.30
2022-08-05T17:33:23.251Z,0.60
2022-08-05T17:36:08.683Z,0.43
2022-08-05T17:38:40.805Z,0.60
2022-08-05T17:42:16.770Z,1.20
2022-08-05T17:44:02.513Z,2.78
2022-08-05T17:46:33.951Z,1.45
2022-08-05T17:49:04.455Z,1.00
2022-08-05T17:51:40.015Z,0.80
2022-08-05T17:54:11.528Z,1.10
2022-08-05T17:56:44.863Z,0.60
2022-08-05T17:59:22.709Z,0.50
2022-08-05T18:01:53.922Z,0.30
2022-08-05T18:04:27.194Z,0.52
2022-08-05T18:07:01.303Z,0.77
2022-08-05T18:09:58.795Z,0.50
2022-08-05T18:12:24.614Z,0.80
2022-08-05T18:14:55.605Z,0.80
2022-08-05T18:17:58.994Z,0.43
2022-08-05T18:20:16.694Z,0.52
2022-08-05T18:22:54.494Z,0.63
2022-08-05T18:25:33.036Z,0.82
2022-08-05T18:28:05.085Z,0.28
2022-08-05T18:30:39.125Z,0.60
2022-08-05T18:33:13.704Z,0.40
2022-08-05T18:36:00.609Z,0.30
2022-08-05T18:38:37.784Z,0.22
2022-08-05T18:41:53.943Z,0.20
2022-08-05T18:44:06.312Z,0.20
2022-08-05T18:46:38.459Z,0.32
2022-08-05T18:49:44.644Z,0.20
2022-08-05T18:52:50.986Z,0.25
2022-08-05T18:55:22.733Z,0.20
2022-08-05T18:57:54.226Z,0.65
2022-08-05T19:00:34.799Z,0.32
2022-08-05T19:03:05.403Z,0.40
2022-08-05T19:06:12.567Z,0.45
2022-08-05T19:08:30.906Z,0.30
2022-08-05T19:11:04.802Z,0.30
2022-08-05T19:13:36.741Z,0.20
2022-08-05T19:16:25.436Z,0.52
2022-08-05T19:18:59.923Z,0.22
2022-08-05T19:24:12.369Z,0.22
2022-08-05T19:26:54.596Z,0.32
2022-08-05T19:29:36.097Z,0.30
2022-08-05T19:32:11.522Z,0.30
2022-08-05T19:34:42.390Z,0.50
2022-08-05T19:37:29.867Z,0.60
2022-08-05T19:40:17.805Z,0.40
2022-08-05T19:43:05.357Z,0.25
2022-08-05T19:45:37.417Z,0.38
2022-08-05T19:48:14.299Z,0.30
2022-08-05T19:50:46.017Z,0.30
2022-08-05T19:53:16.611Z,0.38
2022-08-05T19:56:14.802Z,0.40
2022-08-05T19:58:53.947Z,0.25
2022-08-05T20:01:28.397Z,0.30
2022-08-05T20:03:59.477Z,0.10
2022-08-05T20:06:31.318Z,0.35
2022-08-05T20:09:14.326Z,0.30
2022-08-05T20:11:48.154Z,0.40
2022-08-05T20:14:26.637Z,0.10
2022-08-05T20:17:01.716Z,0.20
2022-08-05T20:19:36.243Z,0.30
2022-08-05T20:22:06.913Z,0.20
2022-08-05T20:24:44.145Z,0.30
2022-08-05T20:27:15.834Z,0.55
2022-08-05T20:29:57.456Z,0.70
2022-08-05T20:32:29.378Z,0.70
2022-08-05T20:35:00.471Z,0.30
2022-08-05T20:38:06.173Z,0.60
2022-08-05T20:40:21.644Z,0.50
2022-08-05T20:42:52.226Z,0.30
2022-08-05T20:45:22.754Z,0.38
2022-08-05T20:48:13.304Z,0.40
2022-08-05T20:50:48.764Z,0.30
2022-08-05T20:53:40.775Z,0.60
2022-08-05T20:56:11.667Z,0.63
2022-08-05T20:58:42.124Z,0.52
2022-08-05T21:01:13.640Z,0.80
2022-08-05T21:03:48.195Z,0.50
2022-08-05T21:06:27.721Z,0.50
2022-08-05T21:08:59.260Z,0.45
2022-08-05T21:12:09.457Z,0.45
2022-08-05T21:14:21.492Z,0.73
2022-08-05T21:16:57.292Z,0.55
2022-08-05T21:19:28.403Z,0.80
2022-08-05T21:22:01.952Z,0.45
2022-08-05T21:24:34.816Z,0.90
2022-08-05T21:27:05.517Z,0.60
2022-08-05T21:29:40.619Z,0.68
2022-08-05T21:32:11.916Z,0.90
2022-08-05T21:35:06.688Z,0.38
2022-08-05T21:37:41.159Z,0.40
2022-08-05T21:40:13.682Z,0.38
2022-08-05T21:42:45.641Z,0.68
2022-08-05T21:45:24.929Z,0.40
2022-08-05T21:48:08.362Z,0.30
2022-08-05T21:50:39.119Z,0.60
2022-08-05T21:53:17.475Z,0.75
2022-08-05T21:56:06.258Z,0.93
2022-08-05T21:58:42.288Z,0.70
2022-08-05T22:01:23.840Z,0.93
2022-08-05T22:03:56.167Z,0.90
2022-08-05T22:06:35.410Z,0.60
2022-08-05T22:09:13.721Z,0.57
2022-08-05T22:11:46.897Z,0.73
2022-08-05T22:14:35.192Z,0.90
2022-08-05T22:17:08.464Z,0.50
2022-08-05T22:20:00.767Z,1.00
2022-08-05T22:22:31.129Z,0.90
2022-08-05T22:25:27.577Z,0.77
2022-08-05T22:28:09.868Z,0.70
2022-08-05T22:30:56.132Z,1.10
2022-08-05T22:33:56.615Z,1.63
2022-08-05T22:36:24.066Z,1.50
2022-08-05T22:38:55.097Z,1.80
2022-08-05T22:42:10.992Z,1.90
2022-08-05T22:44:19.125Z,1.73
2022-08-05T22:46:49.749Z,1.75
2022-08-05T22:50:17.622Z,1.13
2022-08-05T22:52:22.795Z,1.42
2022-08-05T22:55:04.384Z,1.50
2022-08-05T22:57:52.202Z,1.75
2022-08-05T23:00:24.345Z,1.67
2022-08-05T23:02:58.075Z,1.20
2022-08-05T23:05:28.660Z,1.23
2022-08-05T23:08:01.248Z,1.50
2022-08-05T23:10:31.841Z,1.88
2022-08-05T23:15:35.191Z,2.70
2022-08-05T23:18:11.570Z,3.58
2022-08-05T23:20:43.177Z,2.63
2022-08-05T23:23:13.802Z,2.33
2022-08-05T23:25:52.477Z,2.53
2022-08-05T23:28:29.083Z,2.10
2022-08-05T23:31:17.430Z,2.88
2022-08-05T23:34:02.970Z,4.05
2022-08-05T23:36:44.807Z,4.10
2022-08-05T23:39:23.741Z,4.22
2022-08-05T23:42:08.610Z,4.45
2022-08-05T23:44:45.114Z,5.00
2022-08-05T23:47:25.310Z,6.65
2022-08-05T23:49:59.059Z,2.95
2022-08-05T23:52:36.216Z,3.75
2022-08-05T23:55:21.020Z,4.88
2022-08-05T23:57:52.703Z,4.30
